Time;durP1;ratioP1;P1;durP2;ratioP2;P2;SDS_P1;SDS_P2;PMS_P1;PMS_P2;Temp;Humidity;BMP_temperature;BMP_pressure;BME280_temperature;BME280_humidity;BME280_pressure;Samples;Min_cycle;Max_cycle;Signal;HPM_P1;HPM_P2
2023/04/16 00:02:06;;;;;;;4.90;1.20;;;;;;;17.89;51.54;100111.09;4976273;28;20118;-75
2023/04/16 00:04:31;;;;;;;3.53;1.02;;;;;;;17.89;51.19;100108.44;4975791;28;20066;-74
2023/04/16 00:06:57;;;;;;;4.28;1.00;;;;;;;17.87;51.58;100115.53;4974408;28;20082;-75
2023/04/16 00:09:22;;;;;;;4.72;1.05;;;;;;;17.85;51.48;100106.81;4975762;28;20026;-75
2023/04/16 00:11:48;;;;;;;1.98;0.90;;;;;;;17.85;51.39;100107.69;4975354;28;20026;-75
2023/04/16 00:14:13;;;;;;;3.63;0.80;;;;;;;17.86;51.39;100103.25;4975575;28;20158;-75
2023/04/16 00:16:38;;;;;;;4.32;1.08;;;;;;;17.85;51.30;100091.84;4974111;28;20022;-75
2023/04/16 00:19:04;;;;;;;3.58;0.88;;;;;;;17.86;51.37;100095.34;4974798;28;20393;-75
2023/04/16 00:21:30;;;;;;;2.97;0.80;;;;;;;17.86;51.42;100092.69;4974864;28;20019;-75
2023/04/16 00:23:55;;;;;;;3.22;0.80;;;;;;;17.87;51.51;100089.13;4975453;28;20102;-75
2023/04/16 00:26:21;;;;;;;3.72;0.90;;;;;;;17.83;51.45;100087.56;4974755;28;20027;-75
2023/04/16 00:28:46;;;;;;;2.28;1.08;;;;;;;17.84;51.16;100091.91;4975035;28;20097;-75
2023/04/16 00:31:12;;;;;;;3.30;0.80;;;;;;;17.84;51.31;100089.25;4974905;28;20037;-75
2023/04/16 00:33:37;;;;;;;2.25;0.80;;;;;;;17.85;51.33;100096.25;4974450;28;20047;-75
2023/04/16 00:36:03;;;;;;;4.22;0.80;;;;;;;17.82;51.40;100091.13;4975123;28;20033;-76
2023/04/16 00:38:29;;;;;;;3.83;0.80;;;;;;;17.81;51.63;100089.38;4977366;28;20369;-76
2023/04/16 00:40:57;;;;;;;2.45;0.73;;;;;;;17.80;51.33;100085.00;4977519;28;20035;-75
2023/04/16 00:43:24;;;;;;;2.55;0.95;;;;;;;17.80;51.41;100085.00;4977666;28;20034;-75
2023/04/16 00:45:50;;;;;;;3.05;0.88;;;;;;;17.81;51.22;100084.09;4977604;28;20082;-75
2023/04/16 00:48:15;;;;;;;2.60;1.17;;;;;;;17.79;51.51;100080.66;4977814;28;20432;-75
2023/04/16 00:50:41;;;;;;;3.30;1.00;;;;;;;17.79;51.47;100085.94;4977820;28;20058;-75
2023/04/16 00:53:07;;;;;;;2.13;0.70;;;;;;;17.77;51.46;100082.50;4977968;28;20085;-74
2023/04/16 00:55:33;;;;;;;3.38;0.90;;;;;;;17.79;51.63;100080.66;4977042;28;20038;-75
2023/04/16 00:57:58;;;;;;;1.23;0.52;;;;;;;17.77;51.54;100077.22;4977468;28;20085;-75
2023/04/16 01:00:25;;;;;;;6.03;1.38;;;;;;;17.75;51.48;100072.00;4966752;28;20023;-75
2023/04/16 01:02:51;;;;;;;2.75;0.98;;;;;;;17.75;51.49;100084.31;4976646;28;20034;-75
2023/04/16 01:05:16;;;;;;;3.30;0.88;;;;;;;17.74;51.44;100077.31;4976665;28;20393;-75
2023/04/16 01:07:41;;;;;;;2.65;0.80;;;;;;;17.74;51.63;100077.31;4959507;28;20031;-74
2023/04/16 01:10:07;;;;;;;3.10;0.85;;;;;;;17.74;51.52;100077.31;4976238;28;20030;-74
2023/04/16 01:12:33;;;;;;;2.30;0.60;;;;;;;17.74;51.58;100072.03;4976241;28;20105;-74
2023/04/16 01:14:58;;;;;;;2.58;0.80;;;;;;;17.71;51.70;100067.75;4976758;28;20098;-75
2023/04/16 01:17:23;;;;;;;1.88;0.70;;;;;;;17.72;51.52;100074.75;4976640;28;20101;-75
2023/04/16 01:19:49;;;;;;;3.97;0.80;;;;;;;17.71;51.45;100073.03;4976232;28;20027;-76
2023/04/16 01:22:15;;;;;;;2.28;0.70;;;;;;;17.70;51.56;100064.25;4976467;28;20015;-74
2023/04/16 01:24:40;;;;;;;1.40;0.60;;;;;;;17.68;51.68;100074.00;4975752;28;20114;-74
2023/04/16 01:27:06;;;;;;;2.13;0.85;;;;;;;17.68;51.39;100071.34;4976628;28;20031;-75
2023/04/16 01:29:31;;;;;;;2.85;1.02;;;;;;;17.67;51.35;100074.91;4976314;28;20450;-75
2023/04/16 01:31:56;;;;;;;4.75;1.00;;;;;;;17.65;51.83;100063.56;4976007;28;20026;-74
2023/04/16 01:34:22;;;;;;;6.05;1.00;;;;;;;17.64;51.57;100064.50;4975837;28;20070;-74
2023/04/16 01:36:47;;;;;;;8.32;0.98;;;;;;;17.63;51.42;100070.66;4975888;28;20059;-74
2023/04/16 01:39:15;;;;;;;2.50;1.13;;;;;;;17.63;51.55;100070.66;4978110;28;20066;-75
2023/04/16 01:41:42;;;;;;;2.88;0.98;;;;;;;17.63;51.55;100069.81;4975943;28;20026;-74
2023/04/16 01:44:08;;;;;;;2.58;0.80;;;;;;;17.63;51.50;100068.03;4975537;28;20030;-75
2023/04/16 01:46:34;;;;;;;3.25;0.80;;;;;;;17.62;51.53;100068.94;4975633;28;20027;-75
2023/04/16 01:49:04;;;;;;;2.65;0.90;;;;;;;17.62;51.48;100076.84;4976843;28;20022;-76
2023/04/16 01:51:30;;;;;;;3.90;1.02;;;;;;;17.60;51.39;100060.22;4998087;28;20489;-76
2023/04/16 01:53:57;;;;;;;3.63;0.70;;;;;;;17.61;51.75;100067.22;4981804;28;20106;-75
2023/04/16 01:56:22;;;;;;;1.67;0.60;;;;;;;17.60;51.59;100065.50;4977386;28;20027;-74
2023/04/16 01:58:47;;;;;;;1.85;0.70;;;;;;;17.58;51.50;100070.00;4977606;28;20023;-75
2023/04/16 02:01:13;;;;;;;3.63;0.90;;;;;;;17.60;51.40;100067.28;4994689;28;20477;-74
2023/04/16 02:03:39;;;;;;;2.17;0.68;;;;;;;17.59;51.90;100071.72;4996542;28;20030;-75
2023/04/16 02:06:05;;;;;;;2.88;0.90;;;;;;;17.59;51.62;100074.34;4996090;28;20022;-75
2023/04/16 02:08:30;;;;;;;1.35;0.70;;;;;;;17.57;51.45;100081.44;4994965;28;20041;-75
2023/04/16 02:10:56;;;;;;;2.47;0.90;;;;;;;17.56;51.60;100079.72;4981113;28;20097;-75
2023/04/16 02:13:24;;;;;;;2.05;0.90;;;;;;;17.57;51.47;100078.81;4976316;28;20026;-75
2023/04/16 02:15:50;;;;;;;3.97;0.88;;;;;;;17.55;51.50;100078.00;4975935;28;20026;-76
2023/04/16 02:18:16;;;;;;;4.10;0.95;;;;;;;17.53;51.87;100077.22;4975936;28;20019;-75
2023/04/16 02:20:43;;;;;;;2.25;0.73;;;;;;;17.53;51.78;100079.84;4986051;28;20539;-74
2023/04/16 02:23:09;;;;;;;3.20;1.15;;;;;;;17.53;51.43;100074.59;4975336;28;20110;-76
2023/04/16 02:25:42;;;;;;;3.05;0.98;;;;;;;17.49;51.63;100072.97;4976006;28;20037;-75
2023/04/16 02:28:12;;;;;;;2.25;0.82;;;;;;;17.50;51.75;100074.69;4975770;28;20027;-75
2023/04/16 02:30:38;;;;;;;3.55;0.80;;;;;;;17.49;51.62;100079.13;4987995;28;20030;-75
2023/04/16 02:33:06;;;;;;;1.55;0.70;;;;;;;17.49;51.78;100078.25;4980739;28;20568;-74
2023/04/16 02:35:32;;;;;;;2.92;0.80;;;;;;;17.50;51.67;100074.69;4975515;28;20030;-74
2023/04/16 02:37:58;;;;;;;2.35;0.90;;;;;;;17.51;51.50;100081.66;4957271;28;20466;-75
2023/04/16 02:40:24;;;;;;;1.50;0.57;;;;;;;17.49;51.89;100078.25;4974889;28;20098;-75
2023/04/16 02:42:49;;;;;;;2.97;0.90;;;;;;;17.48;51.77;100087.91;4974935;28;20049;-75
2023/04/16 02:45:15;;;;;;;1.67;0.70;;;;;;;17.48;51.49;100084.44;4957389;28;20031;-75
2023/04/16 02:47:41;;;;;;;0.93;0.52;;;;;;;17.47;51.80;100093.28;4975012;28;20058;-74
2023/04/16 02:50:07;;;;;;;2.45;0.68;;;;;;;17.44;51.58;100087.16;4962248;28;20030;-76
2023/04/16 02:52:32;;;;;;;1.90;0.70;;;;;;;17.46;51.67;100084.50;4974908;28;20050;-75
2023/04/16 02:54:58;;;;;;;2.13;0.63;;;;;;;17.42;51.94;100089.00;4974929;28;20124;-75
2023/04/16 02:57:23;;;;;;;2.22;0.80;;;;;;;17.45;51.97;100088.88;4974190;28;20027;-75
2023/04/16 02:59:49;;;;;;;1.95;0.65;;;;;;;17.43;52.00;100093.38;4973998;28;20050;-75
2023/04/16 03:02:15;;;;;;;3.33;0.90;;;;;;;17.44;51.60;100092.44;4974654;28;20079;-75
2023/04/16 03:04:40;;;;;;;3.22;0.90;;;;;;;17.43;51.77;100090.72;4974437;28;20529;-74
2023/04/16 03:07:07;;;;;;;1.67;0.60;;;;;;;17.45;51.80;100088.03;4974089;28;20026;-75
2023/04/16 03:09:32;;;;;;;1.90;0.80;;;;;;;17.41;52.04;100087.31;4974212;28;20424;-74
2023/04/16 03:11:58;;;;;;;2.10;0.73;;;;;;;17.40;51.75;100085.59;4974267;28;20074;-75
2023/04/16 03:14:23;;;;;;;3.55;0.95;;;;;;;17.39;52.10;100089.13;4974576;28;20023;-75
2023/04/16 03:16:48;;;;;;;4.43;1.13;;;;;;;17.40;51.79;100085.59;4974311;28;20030;-75
2023/04/16 03:19:14;;;;;;;1.88;0.73;;;;;;;17.37;51.61;100074.25;4974324;28;20023;-74
2023/04/16 03:21:39;;;;;;;3.47;0.82;;;;;;;17.35;51.84;100076.97;4974343;28;20027;-75
2023/04/16 03:24:05;;;;;;;2.63;0.70;;;;;;;17.38;51.96;100074.19;4974064;28;20019;-75
2023/04/16 03:26:30;;;;;;;3.15;0.85;;;;;;;17.35;51.86;100082.25;4973746;28;20030;-74
2023/04/16 03:28:56;;;;;;;1.42;0.70;;;;;;;17.35;51.74;100082.25;4974335;28;20022;-75
2023/04/16 03:31:23;;;;;;;3.80;0.70;;;;;;;17.35;51.88;100081.38;4974265;28;20445;-75
2023/04/16 03:33:48;;;;;;;3.00;1.08;;;;;;;17.35;51.88;100086.66;4973796;28;20049;-74
2023/04/16 03:36:14;;;;;;;2.08;0.75;;;;;;;17.36;51.81;100085.72;4973416;28;20470;-74
2023/04/16 03:38:39;;;;;;;2.47;0.85;;;;;;;17.33;51.54;100083.22;4973214;28;20066;-74
2023/04/16 03:41:05;;;;;;;1.25;0.60;;;;;;;17.29;51.94;100085.09;4973667;28;20038;-74
2023/04/16 03:43:30;;;;;;;1.65;0.60;;;;;;;17.28;51.72;100075.44;4973868;28;20058;-75
2023/04/16 03:45:56;;;;;;;2.60;0.88;;;;;;;17.29;51.59;100071.91;4973582;28;20034;-74
2023/04/16 03:48:21;;;;;;;1.80;0.80;;;;;;;17.28;51.72;100086.00;4973379;28;20042;-74
2023/04/16 03:50:47;;;;;;;1.55;0.57;;;;;;;17.28;51.72;100086.00;4973133;28;20031;-74
2023/04/16 03:53:13;;;;;;;3.33;0.68;;;;;;;17.26;51.94;100087.84;4974541;28;20034;-75
2023/04/16 03:55:39;;;;;;;2.20;0.70;;;;;;;17.25;51.94;100080.84;4974664;28;20086;-75
2023/04/16 03:58:04;;;;;;;2.05;0.80;;;;;;;17.23;51.66;100087.97;4975238;28;20034;-74
2023/04/16 04:00:30;;;;;;;1.58;0.60;;;;;;;17.23;51.59;100083.53;4974073;28;20023;-74
2023/04/16 04:02:55;;;;;;;2.78;0.70;;;;;;;17.23;51.69;100085.31;4974264;28;20066;-74
2023/04/16 04:05:21;;;;;;;2.42;0.60;;;;;;;17.21;51.70;100087.13;4974267;28;20030;-75
2023/04/16 04:07:46;;;;;;;1.67;0.60;;;;;;;17.18;51.54;100086.34;4972517;28;20037;-75
2023/04/16 04:10:12;;;;;;;2.03;0.70;;;;;;;17.20;51.38;100093.31;4974152;28;20457;-74
2023/04/16 04:12:37;;;;;;;1.75;0.60;;;;;;;17.18;51.79;100091.63;4977387;28;20065;-74
2023/04/16 04:15:03;;;;;;;2.00;0.70;;;;;;;17.17;51.72;100084.63;4977507;28;20162;-74
2023/04/16 04:17:28;;;;;;;0.93;0.50;;;;;;;17.17;51.63;100084.63;4977715;28;20037;-74
2023/04/16 04:19:54;;;;;;;0.77;0.35;;;;;;;17.14;51.65;100083.88;4977883;28;20115;-75
2023/04/16 04:22:19;;;;;;;1.38;0.70;;;;;;;17.14;51.49;100090.00;4975536;28;20034;-75
2023/04/16 04:24:44;;;;;;;1.73;0.70;;;;;;;17.14;51.67;100089.16;4977047;28;20097;-75
2023/04/16 04:27:10;;;;;;;1.63;0.57;;;;;;;17.12;51.64;100083.91;4977789;28;20023;-75
2023/04/16 04:29:35;;;;;;;2.58;0.77;;;;;;;17.13;51.64;100088.28;4960144;28;20038;-76
2023/04/16 04:32:01;;;;;;;2.67;0.70;;;;;;;17.12;51.45;100081.28;4977793;28;20057;-75
2023/04/16 04:34:26;;;;;;;1.30;0.55;;;;;;;17.11;51.79;100084.84;4976786;28;20023;-75
2023/04/16 04:36:51;;;;;;;1.38;0.70;;;;;;;17.10;51.57;100088.38;4977322;28;20385;-75
2023/04/16 04:39:19;;;;;;;3.13;0.93;;;;;;;17.10;51.70;100093.63;4975716;28;20047;-75
2023/04/16 04:41:45;;;;;;;1.65;0.60;;;;;;;17.10;51.54;100087.53;4977269;28;20026;-75
2023/04/16 04:44:10;;;;;;;2.70;0.50;;;;;;;17.09;51.75;100086.66;4976950;28;20041;-75
2023/04/16 04:46:36;;;;;;;2.35;0.70;;;;;;;17.09;51.74;100084.00;4976696;28;20061;-75
2023/04/16 04:49:01;;;;;;;1.63;0.45;;;;;;;17.08;51.35;100090.19;4976460;28;20466;-75
2023/04/16 04:51:27;;;;;;;1.92;0.52;;;;;;;17.05;51.43;100085.06;4977176;28;20027;-75
2023/04/16 04:53:52;;;;;;;1.75;0.73;;;;;;;17.08;51.64;100087.56;4976832;28;20031;-76
2023/04/16 04:56:17;;;;;;;0.93;0.60;;;;;;;17.05;51.62;100090.31;4977011;28;20521;-75
2023/04/16 04:58:43;;;;;;;2.15;0.57;;;;;;;17.06;51.46;100088.53;4977064;28;20034;-75
2023/04/16 05:01:08;;;;;;;1.85;0.60;;;;;;;17.04;51.56;100091.22;4976622;28;20401;-75
2023/04/16 05:03:34;;;;;;;2.28;0.73;;;;;;;17.03;51.19;100085.09;4976284;28;20033;-76
2023/04/16 05:05:59;;;;;;;1.20;0.40;;;;;;;17.04;51.73;100080.66;4976416;28;20050;-75
2023/04/16 05:08:25;;;;;;;1.85;0.70;;;;;;;17.00;51.69;100073.75;4976617;28;20042;-76
2023/04/16 05:10:50;;;;;;;2.95;0.70;;;;;;;16.99;51.67;100075.53;4976602;28;20027;-74
2023/04/16 05:13:15;;;;;;;1.35;0.63;;;;;;;16.99;51.70;100074.66;4976354;28;20031;-75
2023/04/16 05:15:41;;;;;;;1.48;0.55;;;;;;;17.00;51.60;100084.31;4976363;28;20023;-76
2023/04/16 05:18:06;;;;;;;2.45;0.80;;;;;;;16.99;51.76;100088.72;4976552;28;20362;-75
2023/04/16 05:20:32;;;;;;;1.58;0.63;;;;;;;16.98;51.79;100079.09;4976168;28;20030;-76
2023/04/16 05:22:57;;;;;;;2.63;0.68;;;;;;;16.98;51.78;100088.75;4956699;28;20106;-75
2023/04/16 05:25:22;;;;;;;1.75;0.47;;;;;;;16.97;51.72;100089.66;4956773;29;20046;-75
2023/04/16 05:27:48;;;;;;;1.40;0.65;;;;;;;16.96;51.48;100090.59;4956673;29;20027;-76
2023/04/16 05:30:13;;;;;;;1.98;0.50;;;;;;;16.96;51.66;100080.03;4956864;29;20140;-75
2023/04/16 05:32:40;;;;;;;1.48;0.63;;;;;;;16.96;51.40;100086.19;4972648;28;20030;-75
2023/04/16 05:35:05;;;;;;;1.98;0.63;;;;;;;16.97;51.63;100081.75;4975893;28;20031;-74
2023/04/16 05:37:31;;;;;;;1.83;0.50;;;;;;;16.97;51.54;100092.31;4975468;28;20030;-75
2023/04/16 05:39:56;;;;;;;1.40;0.60;;;;;;;16.94;51.49;100087.16;4985820;28;20106;-74
2023/04/16 05:42:22;;;;;;;2.42;0.60;;;;;;;16.95;51.57;100091.50;4980469;28;20030;-75
2023/04/16 05:44:47;;;;;;;2.17;1.02;;;;;;;16.92;51.43;100090.69;4957764;28;20042;-75
2023/04/16 05:47:12;;;;;;;2.88;0.60;;;;;;;16.95;51.77;100094.16;4975082;28;20050;-74
2023/04/16 05:49:38;;;;;;;3.08;0.80;;;;;;;16.98;51.70;100101.94;4975380;28;20038;-75
2023/04/16 05:52:04;;;;;;;2.33;0.50;;;;;;;16.95;51.42;100105.53;4987114;28;20113;-75
2023/04/16 05:54:30;;;;;;;1.52;0.55;;;;;;;16.95;51.70;100104.69;4994953;28;20034;-75
2023/04/16 05:56:55;;;;;;;1.17;0.50;;;;;;;16.95;51.56;100104.69;4995120;28;20481;-75
2023/04/16 05:59:20;;;;;;;1.30;0.68;;;;;;;16.97;51.57;100097.59;4996311;28;20077;-75
2023/04/16 06:01:46;;;;;;;1.55;0.77;;;;;;;16.95;51.53;100099.41;4986436;28;20026;-75
2023/04/16 06:04:11;;;;;;;1.60;0.70;;;;;;;16.92;51.65;100100.38;4976218;28;20500;-74
2023/04/16 06:06:37;;;;;;;2.65;0.77;;;;;;;16.92;51.69;100100.38;4975614;28;20027;-75
2023/04/16 06:09:03;;;;;;;2.65;0.80;;;;;;;16.90;51.52;100108.34;4975672;28;20385;-75
2023/04/16 06:11:29;;;;;;;1.67;0.65;;;;;;;16.91;51.45;100115.31;4992367;28;20498;-75
2023/04/16 06:13:55;;;;;;;2.65;0.63;;;;;;;16.90;51.58;100113.59;4994252;28;20040;-74
2023/04/16 06:16:20;;;;;;;1.52;0.60;;;;;;;16.94;51.50;100113.53;4957322;28;20022;-74
2023/04/16 06:18:46;;;;;;;1.70;0.75;;;;;;;16.90;51.47;100118.88;4975245;28;20029;-75
2023/04/16 06:21:11;;;;;;;1.45;0.63;;;;;;;16.89;51.67;100117.16;4979406;28;20029;-75
2023/04/16 06:23:37;;;;;;;2.20;0.70;;;;;;;16.91;51.34;100123.22;4994724;28;20029;-74
2023/04/16 06:26:03;;;;;;;2.55;0.70;;;;;;;16.90;51.52;100121.53;4994131;28;20034;-74
2023/04/16 06:28:28;;;;;;;2.38;0.68;;;;;;;16.92;51.47;100126.75;4994197;28;20037;-75
2023/04/16 06:30:54;;;;;;;2.25;0.50;;;;;;;16.91;51.70;100136.41;4992018;28;20034;-75
2023/04/16 06:33:19;;;;;;;2.30;0.70;;;;;;;16.91;51.72;100130.31;4973592;28;20058;-75
2023/04/16 06:35:45;;;;;;;2.45;0.60;;;;;;;16.90;51.66;100129.44;4974573;28;20038;-74
2023/04/16 06:38:10;;;;;;;1.83;0.63;;;;;;;16.90;51.25;100129.44;4986216;28;20395;-74
2023/04/16 06:40:36;;;;;;;1.48;0.63;;;;;;;16.94;51.60;100126.69;4993364;28;20070;-74
2023/04/16 06:43:02;;;;;;;1.83;0.88;;;;;;;16.94;51.04;100126.69;4974859;28;20031;-75
2023/04/16 06:45:27;;;;;;;1.70;0.55;;;;;;;16.95;51.46;100125.78;4974162;28;20512;-75
2023/04/16 06:47:53;;;;;;;1.95;0.70;;;;;;;16.93;51.50;100128.47;4974175;28;20434;-74
2023/04/16 06:50:18;;;;;;;3.00;0.82;;;;;;;16.96;51.60;100116.97;4974437;28;20034;-74
2023/04/16 06:52:44;;;;;;;1.85;0.50;;;;;;;16.96;51.52;100122.22;4990289;28;20030;-74
2023/04/16 06:55:10;;;;;;;3.05;0.95;;;;;;;16.97;51.49;100129.22;4993249;28;20484;-74
2023/04/16 06:57:35;;;;;;;3.55;0.60;;;;;;;16.96;51.47;100128.38;4993344;28;20440;-74
2023/04/16 07:00:03;;;;;;;2.10;0.50;;;;;;;16.95;51.65;100131.06;4992978;28;20034;-74
2023/04/16 07:02:29;;;;;;;2.70;0.68;;;;;;;16.99;51.67;100127.38;4979102;28;20023;-74
2023/04/16 07:04:55;;;;;;;1.70;0.52;;;;;;;17.00;51.76;100124.69;4973767;28;20031;-74
2023/04/16 07:07:20;;;;;;;1.95;0.82;;;;;;;17.04;51.46;100129.00;4973856;28;20482;-75
2023/04/16 07:09:45;;;;;;;2.17;0.60;;;;;;;17.07;51.69;100122.75;4973910;28;20110;-74
2023/04/16 07:12:12;;;;;;;2.35;0.80;;;;;;;17.10;51.35;100120.00;4985321;28;20066;-75
2023/04/16 07:14:37;;;;;;;2.58;0.70;;;;;;;17.14;51.32;100121.63;4992952;28;20052;-75
2023/04/16 07:17:03;;;;;;;1.90;0.60;;;;;;;17.15;51.10;100118.06;4992837;28;20026;-74
2023/04/16 07:19:31;;;;;;;1.70;0.80;;;;;;;17.18;51.19;100112.72;4993191;28;20018;-74
2023/04/16 07:21:57;;;;;;;3.28;0.65;;;;;;;17.21;51.44;100116.16;4983502;28;20023;-74
2023/04/16 07:24:22;;;;;;;1.50;0.55;;;;;;;17.23;51.38;100115.19;4973973;28;20429;-75
2023/04/16 07:26:48;;;;;;;3.85;1.00;;;;;;;17.23;51.37;100111.69;4973829;28;20035;-74
2023/04/16 07:29:13;;;;;;;2.85;0.70;;;;;;;17.25;51.28;100107.22;4973695;28;20114;-75
2023/04/16 07:31:39;;;;;;;2.70;1.00;;;;;;;17.27;51.28;100106.25;4980769;28;20014;-75
2023/04/16 07:34:04;;;;;;;1.77;0.80;;;;;;;17.29;51.22;100111.47;4993673;28;20373;-75
2023/04/16 07:36:30;;;;;;;2.15;0.65;;;;;;;17.32;50.84;100111.34;4993372;28;20026;-74
2023/04/16 07:38:56;;;;;;;1.88;0.80;;;;;;;17.33;51.15;100107.81;4993003;28;20120;-75
2023/04/16 07:41:21;;;;;;;2.40;0.85;;;;;;;17.33;51.26;100109.59;4988353;28;20023;-74
2023/04/16 07:43:47;;;;;;;1.85;0.80;;;;;;;17.35;51.03;100113.03;4973234;28;20118;-75
2023/04/16 07:46:12;;;;;;;1.67;0.70;;;;;;;17.38;50.87;100113.78;4976917;28;20102;-74
2023/04/16 07:48:37;;;;;;;2.78;0.90;;;;;;;17.36;50.79;100110.34;4977219;28;20402;-75
2023/04/16 07:51:03;;;;;;;2.10;0.65;;;;;;;17.40;51.11;100106.69;4961397;28;20054;-74
2023/04/16 07:53:28;;;;;;;3.40;0.65;;;;;;;17.41;50.81;100105.75;4996976;28;20053;-75
2023/04/16 07:55:54;;;;;;;3.40;0.70;;;;;;;17.43;51.04;100109.19;4996929;28;20446;-75
2023/04/16 07:58:20;;;;;;;2.83;0.93;;;;;;;17.42;51.06;100109.25;4996628;28;20496;-74
2023/04/16 08:00:45;;;;;;;1.65;0.50;;;;;;;17.43;50.97;100109.19;4996808;28;20034;-74
2023/04/16 08:03:10;;;;;;;1.83;0.82;;;;;;;17.43;50.97;100111.84;4980104;28;20393;-75
2023/04/16 08:05:36;;;;;;;3.67;0.80;;;;;;;17.45;50.74;100107.34;4961122;28;20031;-75
2023/04/16 08:08:01;;;;;;;3.85;1.08;;;;;;;17.45;50.87;100102.09;4977289;28;20022;-75
2023/04/16 08:10:27;;;;;;;1.75;0.75;;;;;;;17.48;50.91;100097.63;4977001;28;20031;-75
2023/04/16 08:12:52;;;;;;;3.13;0.73;;;;;;;17.48;50.99;100095.00;4993632;28;20027;-74
2023/04/16 08:15:18;;;;;;;3.05;0.90;;;;;;;17.48;50.86;100089.72;4963493;28;20026;-75
2023/04/16 08:17:43;;;;;;;3.72;0.80;;;;;;;17.49;50.72;100100.22;4975381;28;20022;-75
2023/04/16 08:20:09;;;;;;;2.30;0.70;;;;;;;17.51;50.92;100102.78;4976829;28;20027;-74
2023/04/16 08:22:35;;;;;;;3.00;0.90;;;;;;;17.53;50.69;100106.25;4990147;28;20026;-74
2023/04/16 08:25:01;;;;;;;2.13;0.70;;;;;;;17.54;50.90;100107.97;4993570;28;20488;-74
2023/04/16 08:27:27;;;;;;;1.48;0.57;;;;;;;17.53;50.67;100108.88;4976063;28;20023;-75
2023/04/16 08:29:52;;;;;;;1.88;0.70;;;;;;;17.55;50.67;100105.28;4976638;28;20026;-74
2023/04/16 08:32:18;;;;;;;3.70;0.98;;;;;;;17.57;50.74;100108.72;4987909;28;20022;-74
2023/04/16 08:34:43;;;;;;;2.22;0.77;;;;;;;17.57;50.67;100110.47;4983606;28;20471;-74
2023/04/16 08:37:09;;;;;;;2.47;0.63;;;;;;;17.60;50.70;100113.00;4979339;28;20030;-74
2023/04/16 08:39:34;;;;;;;3.10;0.90;;;;;;;17.59;50.80;100103.38;4975782;28;20117;-74
2023/04/16 08:42:03;;;;;;;3.03;0.80;;;;;;;17.60;50.92;100107.75;4976007;28;20027;-75
2023/04/16 08:44:32;;;;;;;2.55;0.65;;;;;;;17.63;50.74;100112.03;4975781;28;20030;-75
2023/04/16 08:46:59;;;;;;;2.10;0.82;;;;;;;17.63;50.87;100112.88;4975953;28;20556;-74
2023/04/16 08:49:25;;;;;;;2.78;0.93;;;;;;;17.67;50.86;100108.38;4975897;28;20445;-74
2023/04/16 08:51:53;;;;;;;3.60;0.95;;;;;;;17.67;50.91;100109.22;4971014;28;20026;-74
2023/04/16 08:54:45;;;;;;;4.00;1.63;;;;;;;17.69;50.62;100115.31;4956347;29;20031;-74
2023/04/16 08:57:13;;;;;;;2.83;1.00;;;;;;;17.69;50.59;100112.66;4950195;28;20036;-74
2023/04/16 08:59:39;;;;;;;2.72;0.90;;;;;;;17.70;50.79;100118.81;4956596;29;20027;-74
2023/04/16 09:02:05;;;;;;;1.95;0.82;;;;;;;17.73;50.38;100117.84;4948433;28;20382;-74
2023/04/16 09:04:31;;;;;;;3.08;1.13;;;;;;;17.72;50.44;100127.53;4975576;28;20078;-74
2023/04/16 09:06:57;;;;;;;3.10;1.05;;;;;;;17.74;50.87;100114.28;4975624;28;20035;-74
2023/04/16 09:09:25;;;;;;;2.55;0.90;;;;;;;17.76;50.79;100123.88;4975388;28;20489;-74
2023/04/16 09:11:52;;;;;;;4.25;1.10;;;;;;;17.75;50.86;100118.63;4975432;28;20047;-77
2023/04/16 09:14:18;;;;;;;3.40;1.00;;;;;;;17.76;50.40;100118.59;4975971;28;20035;-76
2023/04/16 09:16:46;;;;;;;4.35;1.00;;;;;;;17.77;50.37;100125.59;4975950;28;20061;-74
2023/04/16 09:19:13;;;;;;;1.73;0.70;;;;;;;17.79;50.59;100117.63;4975871;28;20026;-75
2023/04/16 09:21:40;;;;;;;2.63;0.70;;;;;;;17.79;50.70;100126.41;4975412;28;20019;-74
2023/04/16 09:24:08;;;;;;;2.63;0.80;;;;;;;17.79;50.45;100114.97;4974825;28;20027;-74
2023/04/16 09:26:34;;;;;;;2.28;0.80;;;;;;;17.81;50.43;100121.03;4975257;28;20481;-74
2023/04/16 09:29:00;;;;;;;2.10;0.80;;;;;;;17.82;50.63;100125.44;4975288;28;20499;-74
2023/04/16 09:31:26;;;;;;;2.05;0.70;;;;;;;17.83;50.46;100119.22;4974282;28;20110;-75
2023/04/16 09:34:08;;;;;;;2.80;0.80;;;;;;;17.83;50.53;100113.94;4955902;29;20102;-74
2023/04/16 09:36:35;;;;;;;2.95;0.90;;;;;;;17.83;50.62;100111.31;4955648;29;20401;-74
2023/04/16 09:39:01;;;;;;;2.63;0.75;;;;;;;17.85;50.65;100117.38;4955284;29;20110;-74
2023/04/16 09:41:31;;;;;;;2.03;0.93;;;;;;;17.84;50.48;100103.31;4956342;28;20027;-74
2023/04/16 09:44:03;;;;;;;3.58;0.88;;;;;;;17.85;50.45;100117.38;4974781;28;20070;-73
2023/04/16 09:46:28;;;;;;;3.33;1.08;;;;;;;17.87;50.48;100106.78;4957634;28;20113;-75
2023/04/16 09:48:54;;;;;;;2.08;0.70;;;;;;;17.86;50.75;100105.91;4975214;28;20062;-74
2023/04/16 09:51:19;;;;;;;2.22;0.85;;;;;;;17.87;50.55;100109.41;4974704;28;20429;-75
2023/04/16 09:53:45;;;;;;;3.47;1.00;;;;;;;17.88;50.94;100105.84;4974239;28;20026;-74
2023/04/16 09:56:11;;;;;;;2.75;0.80;;;;;;;17.88;50.73;100111.13;4974589;28;20026;-75
2023/04/16 09:58:37;;;;;;;4.32;1.15;;;;;;;17.87;50.88;100097.06;4944501;28;20038;-75
2023/04/16 10:01:02;;;;;;;2.72;1.00;;;;;;;17.88;50.67;100109.38;4954982;29;20573;-74
2023/04/16 10:03:32;;;;;;;2.38;1.05;;;;;;;17.90;51.07;100104.88;4971277;28;20082;-75
2023/04/16 10:06:18;;;;;;;2.58;0.82;;;;;;;17.91;50.83;100101.31;4976527;28;20026;-75
2023/04/16 10:08:46;;;;;;;2.13;1.00;;;;;;;17.92;50.85;100100.38;4975712;28;20525;-75
2023/04/16 10:11:11;;;;;;;4.03;1.10;;;;;;;17.94;50.87;100106.50;4965936;28;20093;-75
2023/04/16 10:13:37;;;;;;;4.20;1.10;;;;;;;17.92;51.09;100103.03;4953982;29;20502;-75
2023/04/16 10:16:03;;;;;;;2.78;1.20;;;;;;;17.94;50.64;100101.22;4956128;29;20058;-75
2023/04/16 10:18:29;;;;;;;2.17;0.80;;;;;;;17.96;50.87;100101.13;4968785;28;20023;-74
2023/04/16 10:20:56;;;;;;;3.85;1.38;;;;;;;17.97;50.94;100109.00;4971585;28;20026;-74
2023/04/16 10:23:22;;;;;;;4.53;1.40;;;;;;;18.00;50.78;100101.91;4970917;28;20027;-73
2023/04/16 10:25:53;;;;;;;3.85;1.30;;;;;;;17.98;51.06;100094.88;4964096;28;20429;-73
2023/04/16 10:28:19;;;;;;;4.90;1.30;;;;;;;18.00;50.94;100100.09;4963735;28;20039;-73
2023/04/16 10:30:51;;;;;;;4.78;1.40;;;;;;;18.02;50.88;100098.25;4973315;28;20073;-73
2023/04/16 10:33:22;;;;;;;3.70;1.30;;;;;;;18.04;50.87;100095.56;4970872;28;20030;-73
2023/04/16 10:35:49;;;;;;;3.55;1.33;;;;;;;18.07;50.69;100098.13;4971590;28;20126;-74
2023/04/16 10:38:22;;;;;;;6.60;1.45;;;;;;;18.09;50.98;100098.91;4972721;28;20019;-74
2023/04/16 10:40:47;;;;;;;4.53;1.42;;;;;;;18.10;50.92;100100.63;4967154;28;20118;-74
2023/04/16 10:43:18;;;;;;;5.70;1.52;;;;;;;18.12;50.59;100093.53;4969375;28;20441;-76
2023/04/16 10:45:43;;;;;;;5.03;1.85;;;;;;;18.14;50.83;100099.59;4971999;28;20031;-75
2023/04/16 10:48:09;;;;;;;2.80;1.13;;;;;;;18.15;50.69;100093.41;4952873;28;20405;-75
2023/04/16 10:50:38;;;;;;;4.38;1.55;;;;;;;18.15;50.93;100090.75;4971954;28;20022;-75
2023/04/16 10:53:22;;;;;;;4.15;1.20;;;;;;;18.17;50.59;100088.94;4973645;28;20015;-76
2023/04/16 10:56:05;;;;;;;5.95;1.88;;;;;;;18.16;50.80;100095.09;4966160;28;20532;-74
2023/04/16 10:58:35;;;;;;;3.30;1.17;;;;;;;18.19;50.87;100094.13;4968866;28;20485;-74
2023/04/16 11:01:05;;;;;;;3.53;1.20;;;;;;;18.19;50.85;100081.81;4972139;28;20106;-75
2023/04/16 11:03:31;;;;;;;7.20;1.58;;;;;;;18.20;50.53;100074.72;4970473;28;20030;-75
2023/04/16 11:06:17;;;;;;;4.53;1.77;;;;;;;18.20;50.51;100075.59;4969542;28;20030;-75
2023/04/16 11:08:46;;;;;;;5.53;1.67;;;;;;;18.22;50.50;100065.81;4971708;28;20057;-75
2023/04/16 11:11:12;;;;;;;5.90;1.80;;;;;;;18.24;50.47;100066.63;4970365;28;20030;-75
2023/04/16 11:13:37;;;;;;;5.28;1.77;;;;;;;18.23;50.74;100067.56;4970292;28;20011;-75
2023/04/16 11:16:04;;;;;;;9.57;1.80;;;;;;;18.25;50.54;100051.63;4968358;28;20078;-74
2023/04/16 11:18:29;;;;;;;5.30;1.88;;;;;;;18.26;50.44;100056.00;4970845;28;20045;-75
2023/04/16 11:20:55;;;;;;;6.07;1.65;;;;;;;18.28;50.46;100050.63;4967496;28;20026;-75